createdAt,value
2023-04-27T00:03:53.318Z,0.88
2023-04-27T00:08:53.369Z,0.82
2023-04-27T00:13:53.185Z,0.79
2023-04-27T00:18:51.594Z,0.74
2023-04-27T00:23:51.387Z,0.68
2023-04-27T00:28:51.531Z,0.6
2023-04-27T00:33:52.424Z,0.5
2023-04-27T00:38:49.961Z,0.43
2023-04-27T00:43:49.769Z,0.4
2023-04-27T00:48:48.800Z,0.44
2023-04-27T00:53:48.526Z,0.48
2023-04-27T00:58:47.214Z,0.47
2023-04-27T01:03:46.804Z,0.44
2023-04-27T01:08:47.502Z,0.38
2023-04-27T01:13:46.818Z,0.38
2023-04-27T01:18:46.171Z,0.35
2023-04-27T01:23:45.222Z,0.29
2023-04-27T01:28:45.578Z,0.23
2023-04-27T01:33:44.881Z,0.13
2023-04-27T01:38:45.388Z,0.14
2023-04-27T01:43:43.420Z,0.11
2023-04-27T01:48:42.854Z,0.04
2023-04-27T01:53:42.120Z,0.02
2023-04-27T01:58:41.375Z,-0.02
2023-04-27T02:03:39.856Z,-0.06
2023-04-27T02:08:39.554Z,-0.1
2023-04-27T02:13:39.281Z,-0.15
2023-04-27T02:18:40.010Z,-0.22
2023-04-27T02:23:37.332Z,-0.27
2023-04-27T02:28:37.128Z,-0.34
2023-04-27T02:33:36.253Z,-0.38
2023-04-27T02:38:35.809Z,-0.46
2023-04-27T02:43:34.119Z,-0.49
2023-04-27T02:48:33.727Z,-0.58
2023-04-27T02:53:34.104Z,-0.72
2023-04-27T02:58:33.410Z,-0.75
2023-04-27T02:59:54.979Z,-0.75
2023-04-27T03:04:54.250Z,-0.78
2023-04-27T03:59:14.077Z,-0.65
2023-04-27T04:04:22.057Z,-0.66
2023-04-27T04:09:23.808Z,-0.66
2023-04-27T04:14:22.485Z,-0.63
2023-04-27T04:19:21.926Z,-0.61
2023-04-27T04:24:20.366Z,-0.57
2023-04-27T04:29:20.213Z,-0.54
2023-04-27T04:34:19.893Z,-0.5
2023-04-27T04:39:20.090Z,-0.46
2023-04-27T04:44:19.521Z,-0.39
2023-04-27T04:49:21.092Z,-0.23
2023-04-27T04:54:18.089Z,0.12
2023-04-27T04:58:53.448Z,0.39
2023-04-27T05:03:53.017Z,0.61
2023-04-27T05:08:52.005Z,0.78
2023-04-27T05:13:51.671Z,1.17
2023-04-27T05:18:51.765Z,1.59
2023-04-27T05:23:51.158Z,1.88
2023-04-27T05:28:48.952Z,2.01
2023-04-27T05:33:48.472Z,1.99
2023-04-27T05:38:48.530Z,2.05
2023-04-27T05:48:47.481Z,2.24
2023-04-27T05:53:47.235Z,2.39
2023-04-27T05:58:47.057Z,2.58
2023-04-27T06:03:46.916Z,2.81
2023-04-27T06:08:47.559Z,2.99
2023-04-27T06:13:44.730Z,3.19
2023-04-27T06:18:44.420Z,3.4
2023-04-27T06:23:43.572Z,3.62
2023-04-27T06:28:43.204Z,3.9
2023-04-27T06:33:41.795Z,4.14
2023-04-27T06:38:41.188Z,4.42
2023-04-27T06:43:41.415Z,4.75
2023-04-27T06:48:40.849Z,4.96
2023-04-27T06:53:39.986Z,5.22
2023-04-27T06:58:39.756Z,5.52
2023-04-27T07:03:39.792Z,6
2023-04-27T07:08:39.998Z,6.27
2023-04-27T07:13:38.216Z,6.51
2023-04-27T07:18:37.899Z,6.87
2023-04-27T07:23:37.952Z,7.18
2023-04-27T07:28:37.412Z,7.36
2023-04-27T07:33:36.879Z,7.66
2023-04-27T07:38:36.477Z,7.99
2023-04-27T07:43:36.517Z,8.27
2023-04-27T07:48:36.053Z,8.59
2023-04-27T07:53:37.071Z,8.76
2023-04-27T07:58:34.610Z,9.08
2023-04-27T07:59:55.874Z,9.21
2023-04-27T08:04:55.567Z,9.47
2023-04-27T08:14:53.066Z,10.64
2023-04-27T08:19:53.090Z,11.24
2023-04-27T08:29:53.020Z,12.39
2023-04-27T08:44:51.615Z,13.81
2023-04-27T08:49:51.718Z,14.03
2023-04-27T08:59:21.059Z,13.78
2023-04-27T09:04:20.893Z,13.48
2023-04-27T09:09:22.052Z,13.32
2023-04-27T09:14:19.066Z,13.6
2023-04-27T09:19:18.622Z,12.57
2023-04-27T09:24:19.643Z,11.68
2023-04-27T09:29:16.338Z,10.86
2023-04-27T09:34:16.580Z,10.41
2023-04-27T09:39:05.873Z,10.21
2023-04-27T09:44:05.108Z,10.03
2023-04-27T09:49:04.604Z,11.04
2023-04-27T09:54:04.728Z,12.24
2023-04-27T09:58:51.296Z,13.19
2023-04-27T10:03:52.350Z,14.02
2023-04-27T10:08:49.627Z,13.44
2023-04-27T10:13:49.556Z,12.58
2023-04-27T10:18:49.541Z,12.61
2023-04-27T10:23:49.295Z,13.57
2023-04-27T10:28:49.158Z,13.45
2023-04-27T10:33:49.214Z,12.65
2023-04-27T10:38:48.754Z,11.96
2023-04-27T10:43:47.072Z,12.29
2023-04-27T10:48:46.794Z,13
2023-04-27T10:53:47.034Z,13.42
2023-04-27T10:58:49.137Z,13.85
2023-04-27T11:03:45.948Z,14.1
2023-04-27T11:08:45.361Z,13.76
2023-04-27T11:13:45.277Z,13.93
2023-04-27T11:18:44.686Z,14.03
2023-04-27T11:23:45.428Z,13.25
2023-04-27T11:28:42.668Z,12.6
2023-04-27T11:33:42.389Z,12.56
2023-04-27T11:38:41.785Z,12.79
2023-04-27T11:43:41.486Z,13.43
2023-04-27T11:48:39.960Z,13.15
2023-04-27T11:53:39.590Z,12.78
2023-04-27T11:58:39.737Z,12.53
2023-04-27T12:00:02.795Z,12.45
2023-04-27T12:04:59.783Z,12.28
2023-04-27T12:24:56.424Z,12.25
2023-04-27T12:30:50.204Z,13.08
2023-04-27T12:58:55.020Z,12.55
2023-04-27T13:03:54.826Z,12.38
2023-04-27T13:08:55.027Z,12.65
2023-04-27T13:13:54.411Z,12.79
2023-04-27T13:18:52.907Z,12.49
2023-04-27T13:23:52.468Z,12.49
2023-04-27T13:28:52.502Z,12.57
2023-04-27T13:33:53.741Z,12.86
2023-04-27T13:38:51.165Z,13.05
2023-04-27T13:43:51.329Z,12.93
2023-04-27T13:48:50.386Z,13.23
2023-04-27T13:53:50.153Z,13.01
2023-04-27T13:58:48.444Z,13.07
2023-04-27T14:03:48.362Z,13.02
2023-04-27T14:08:48.028Z,12.77
2023-04-27T14:13:47.538Z,12.61
2023-04-27T14:18:46.882Z,12.57
2023-04-27T14:23:45.958Z,12.53
2023-04-27T14:28:45.759Z,12.43
2023-04-27T14:33:44.928Z,12.25
2023-04-27T14:38:45.598Z,12.12
2023-04-27T14:43:42.833Z,11.93
2023-04-27T14:48:42.742Z,11.78
2023-04-27T14:53:41.834Z,11.74
2023-04-27T14:58:41.258Z,11.65
2023-04-27T15:03:39.930Z,11.47
2023-04-27T15:08:39.396Z,11.39
2023-04-27T15:13:39.025Z,11.36
2023-04-27T15:18:39.886Z,11.4
2023-04-27T15:23:37.009Z,11.38
2023-04-27T15:28:36.890Z,11.35
2023-04-27T15:33:36.014Z,11.3
2023-04-27T15:38:35.771Z,11.22
2023-04-27T15:43:33.967Z,11.16
2023-04-27T15:48:33.449Z,11.1
2023-04-27T15:53:33.538Z,11.05
2023-04-27T15:58:32.868Z,11.04
2023-04-27T15:59:54.359Z,11.05
2023-04-27T16:19:53.669Z,10.9
2023-04-27T16:24:51.104Z,10.95
2023-04-27T16:29:50.704Z,10.98
2023-04-27T16:34:50.674Z,11
2023-04-27T16:39:50.296Z,10.93
2023-04-27T16:44:49.173Z,10.77
2023-04-27T16:49:49.150Z,10.72
2023-04-27T16:54:48.403Z,10.69
2023-04-27T16:59:24.047Z,10.66
2023-04-27T17:04:21.018Z,10.64
2023-04-27T17:09:20.578Z,10.6
2023-04-27T17:14:23.613Z,10.55
2023-04-27T17:19:18.773Z,10.53
2023-04-27T17:24:19.075Z,10.52
2023-04-27T17:29:19.008Z,10.44
2023-04-27T17:34:16.803Z,10.31
2023-04-27T17:39:17.148Z,10.21
2023-04-27T17:44:16.782Z,10.1
2023-04-27T17:49:16.504Z,9.97
2023-04-27T17:54:16.497Z,9.68
2023-04-27T17:58:52.850Z,9.45
2023-04-27T18:03:52.525Z,9.25
2023-04-27T18:08:50.619Z,9.1
2023-04-27T18:13:50.285Z,8.95
2023-04-27T18:18:50.356Z,8.72
2023-04-27T18:23:49.815Z,8.52
2023-04-27T18:28:47.777Z,8.38
2023-04-27T18:33:47.601Z,8.22
2023-04-27T18:38:46.634Z,8.16
2023-04-27T18:43:45.890Z,8.02
2023-04-27T18:48:44.377Z,7.91
2023-04-27T18:53:43.921Z,7.79
2023-04-27T18:58:44.031Z,7.71
2023-04-27T19:03:43.421Z,7.64
2023-04-27T19:08:42.556Z,7.55
2023-04-27T19:13:42.401Z,7.48
2023-04-27T19:18:42.126Z,7.39
2023-04-27T19:23:41.338Z,7.31
2023-04-27T19:28:42.127Z,7.24
2023-04-27T19:33:46.616Z,7.14
2023-04-27T19:38:39.217Z,7.08
2023-04-27T19:43:38.431Z,7.02
2023-04-27T19:48:38.165Z,6.98
2023-04-27T19:53:36.841Z,6.93
2023-04-27T19:58:36.266Z,6.87
2023-04-27T20:03:36.566Z,6.84
2023-04-27T20:08:38.030Z,6.76
2023-04-27T20:13:35.511Z,6.74
2023-04-27T20:18:35.199Z,6.71
2023-04-27T20:23:35.266Z,6.69
2023-04-27T20:28:34.571Z,6.67
2023-04-27T20:33:33.018Z,6.64
2023-04-27T20:38:32.556Z,6.6
2023-04-27T20:43:32.703Z,6.54
2023-04-27T20:48:32.077Z,6.49
2023-04-27T20:53:31.626Z,6.46
2023-04-27T20:58:31.003Z,6.41
2023-04-27T21:04:51.447Z,6.35
2023-04-27T21:09:52.070Z,6.31
2023-04-27T21:14:49.430Z,6.27
2023-04-27T21:19:49.274Z,6.21
2023-04-27T21:24:48.544Z,6.14
2023-04-27T21:29:47.919Z,6.08
2023-04-27T21:34:46.515Z,6.03
2023-04-27T21:39:46.318Z,5.97
2023-04-27T21:44:46.193Z,5.89
2023-04-27T21:49:46.919Z,5.84
2023-04-27T21:54:44.316Z,5.79
2023-04-27T21:59:20.690Z,5.73
2023-04-27T22:04:21.086Z,5.66
2023-04-27T22:09:20.224Z,5.61
2023-04-27T22:14:20.149Z,5.54
2023-04-27T22:19:19.671Z,5.48
2023-04-27T22:24:20.987Z,5.4
2023-04-27T22:29:17.785Z,5.33
2023-04-27T22:34:17.333Z,5.25
2023-04-27T22:39:18.449Z,5.2
2023-04-27T22:44:04.656Z,5.14
2023-04-27T22:49:04.723Z,5.08
2023-04-27T22:54:03.950Z,5.02
2023-04-27T22:58:51.485Z,4.94
2023-04-27T23:03:49.799Z,4.85
2023-04-27T23:08:49.540Z,4.79
2023-04-27T23:13:49.612Z,4.75
2023-04-27T23:18:48.860Z,4.69
2023-04-27T23:23:46.752Z,4.67
2023-04-27T23:28:46.821Z,4.66
2023-04-27T23:33:46.896Z,4.65
2023-04-27T23:38:46.416Z,4.63
2023-04-27T23:43:44.767Z,4.61
2023-04-27T23:48:44.340Z,4.6
2023-04-27T23:53:44.428Z,4.58
2023-04-27T23:58:45.746Z,4.57
